sensor_id;sensor_type;location;lat;lon;timestamp;P1;durP1;ratioP1;P2;durP2;ratioP2
62153;SDS011;48140;45.486;9.226;2023-05-28T00:01:00;17.30;;;9.70;;
62153;SDS011;48140;45.486;9.226;2023-05-28T00:03:26;14.98;;;9.75;;
62153;SDS011;48140;45.486;9.226;2023-05-28T00:08:31;16.00;;;9.40;;
62153;SDS011;48140;45.486;9.226;2023-05-28T00:10:57;13.48;;;9.38;;
62153;SDS011;48140;45.486;9.226;2023-05-28T00:13:28;16.20;;;9.13;;
62153;SDS011;48140;45.486;9.226;2023-05-28T00:15:54;12.65;;;8.63;;
62153;SDS011;48140;45.486;9.226;2023-05-28T00:18:20;15.35;;;9.18;;
62153;SDS011;48140;45.486;9.226;2023-05-28T00:20:46;14.57;;;8.68;;
62153;SDS011;48140;45.486;9.226;2023-05-28T00:23:13;17.35;;;8.73;;
62153;SDS011;48140;45.486;9.226;2023-05-28T00:25:39;17.30;;;9.80;;
62153;SDS011;48140;45.486;9.226;2023-05-28T00:28:05;12.27;;;8.43;;
62153;SDS011;48140;45.486;9.226;2023-05-28T00:30:31;15.85;;;9.63;;
62153;SDS011;48140;45.486;9.226;2023-05-28T00:32:56;14.15;;;9.23;;
62153;SDS011;48140;45.486;9.226;2023-05-28T00:35:22;17.00;;;9.30;;
62153;SDS011;48140;45.486;9.226;2023-05-28T00:37:48;14.15;;;8.77;;
62153;SDS011;48140;45.486;9.226;2023-05-28T00:40:13;12.80;;;9.02;;
62153;SDS011;48140;45.486;9.226;2023-05-28T00:42:43;11.93;;;7.95;;
62153;SDS011;48140;45.486;9.226;2023-05-28T00:45:11;16.15;;;8.82;;
62153;SDS011;48140;45.486;9.226;2023-05-28T00:47:40;16.95;;;8.60;;
62153;SDS011;48140;45.486;9.226;2023-05-28T00:50:07;12.73;;;7.72;;
62153;SDS011;48140;45.486;9.226;2023-05-28T00:52:34;14.75;;;8.00;;
62153;SDS011;48140;45.486;9.226;2023-05-28T00:55:01;12.88;;;8.70;;
62153;SDS011;48140;45.486;9.226;2023-05-28T00:57:31;13.38;;;8.07;;
62153;SDS011;48140;45.486;9.226;2023-05-28T00:59:57;16.05;;;8.68;;
62153;SDS011;48140;45.486;9.226;2023-05-28T01:05:06;13.50;;;8.43;;
62153;SDS011;48140;45.486;9.226;2023-05-28T01:07:33;14.77;;;8.88;;
62153;SDS011;48140;45.486;9.226;2023-05-28T01:09:59;14.18;;;8.75;;
62153;SDS011;48140;45.486;9.226;2023-05-28T01:12:25;13.82;;;9.15;;
62153;SDS011;48140;45.486;9.226;2023-05-28T01:14:52;15.90;;;8.98;;
62153;SDS011;48140;45.486;9.226;2023-05-28T01:17:18;15.00;;;8.73;;
62153;SDS011;48140;45.486;9.226;2023-05-28T01:19:44;15.25;;;9.10;;
62153;SDS011;48140;45.486;9.226;2023-05-28T01:22:12;17.08;;;8.93;;
62153;SDS011;48140;45.486;9.226;2023-05-28T01:24:42;14.45;;;9.15;;
62153;SDS011;48140;45.486;9.226;2023-05-28T01:27:11;14.43;;;9.70;;
62153;SDS011;48140;45.486;9.226;2023-05-28T01:29:38;17.13;;;9.63;;
62153;SDS011;48140;45.486;9.226;2023-05-28T01:32:04;15.38;;;8.68;;
62153;SDS011;48140;45.486;9.226;2023-05-28T01:34:30;12.95;;;8.50;;
62153;SDS011;48140;45.486;9.226;2023-05-28T01:37:06;15.18;;;8.70;;
62153;SDS011;48140;45.486;9.226;2023-05-28T01:39:37;14.10;;;8.30;;
62153;SDS011;48140;45.486;9.226;2023-05-28T01:42:07;12.77;;;8.70;;
62153;SDS011;48140;45.486;9.226;2023-05-28T01:44:34;17.75;;;8.88;;
62153;SDS011;48140;45.486;9.226;2023-05-28T01:47:00;13.57;;;9.57;;
62153;SDS011;48140;45.486;9.226;2023-05-28T01:49:26;16.27;;;7.88;;
62153;SDS011;48140;45.486;9.226;2023-05-28T01:51:52;13.07;;;7.90;;
62153;SDS011;48140;45.486;9.226;2023-05-28T01:54:18;12.23;;;8.18;;
62153;SDS011;48140;45.486;9.226;2023-05-28T01:56:45;16.55;;;9.30;;
62153;SDS011;48140;45.486;9.226;2023-05-28T01:59:11;12.27;;;8.40;;
62153;SDS011;48140;45.486;9.226;2023-05-28T02:02:09;13.57;;;8.35;;
62153;SDS011;48140;45.486;9.226;2023-05-28T02:04:35;13.27;;;8.35;;
62153;SDS011;48140;45.486;9.226;2023-05-28T02:07:00;13.32;;;8.32;;
62153;SDS011;48140;45.486;9.226;2023-05-28T02:09:26;14.75;;;8.40;;
62153;SDS011;48140;45.486;9.226;2023-05-28T02:11:53;11.25;;;7.63;;
62153;SDS011;48140;45.486;9.226;2023-05-28T02:14:19;15.65;;;8.80;;
62153;SDS011;48140;45.486;9.226;2023-05-28T02:16:45;15.40;;;8.35;;
62153;SDS011;48140;45.486;9.226;2023-05-28T02:19:16;12.02;;;8.25;;
62153;SDS011;48140;45.486;9.226;2023-05-28T02:21:42;14.15;;;9.20;;
62153;SDS011;48140;45.486;9.226;2023-05-28T02:24:07;16.67;;;8.38;;
62153;SDS011;48140;45.486;9.226;2023-05-28T02:26:33;12.35;;;8.10;;
62153;SDS011;48140;45.486;9.226;2023-05-28T02:28:59;12.30;;;8.20;;
62153;SDS011;48140;45.486;9.226;2023-05-28T02:31:25;14.70;;;8.65;;
62153;SDS011;48140;45.486;9.226;2023-05-28T02:33:51;11.23;;;8.20;;
62153;SDS011;48140;45.486;9.226;2023-05-28T02:36:19;14.30;;;8.52;;
62153;SDS011;48140;45.486;9.226;2023-05-28T02:38:45;13.48;;;8.73;;
62153;SDS011;48140;45.486;9.226;2023-05-28T02:41:11;13.80;;;8.63;;
62153;SDS011;48140;45.486;9.226;2023-05-28T02:43:37;13.18;;;8.18;;
62153;SDS011;48140;45.486;9.226;2023-05-28T02:46:03;12.68;;;8.30;;
62153;SDS011;48140;45.486;9.226;2023-05-28T02:48:36;15.95;;;8.60;;
62153;SDS011;48140;45.486;9.226;2023-05-28T02:51:16;13.40;;;8.98;;
62153;SDS011;48140;45.486;9.226;2023-05-28T02:53:44;16.75;;;8.63;;
62153;SDS011;48140;45.486;9.226;2023-05-28T02:56:10;14.32;;;8.70;;
62153;SDS011;48140;45.486;9.226;2023-05-28T02:58:36;13.65;;;8.25;;
62153;SDS011;48140;45.486;9.226;2023-05-28T03:01:10;12.60;;;8.48;;
62153;SDS011;48140;45.486;9.226;2023-05-28T03:03:36;12.40;;;7.88;;
62153;SDS011;48140;45.486;9.226;2023-05-28T03:06:02;13.50;;;7.95;;
62153;SDS011;48140;45.486;9.226;2023-05-28T03:08:28;12.95;;;8.18;;
62153;SDS011;48140;45.486;9.226;2023-05-28T03:10:53;11.00;;;7.80;;
62153;SDS011;48140;45.486;9.226;2023-05-28T03:13:19;13.32;;;7.88;;
62153;SDS011;48140;45.486;9.226;2023-05-28T03:15:45;11.35;;;7.93;;
62153;SDS011;48140;45.486;9.226;2023-05-28T03:18:10;13.30;;;8.93;;
62153;SDS011;48140;45.486;9.226;2023-05-28T03:20:39;12.38;;;8.35;;
62153;SDS011;48140;45.486;9.226;2023-05-28T03:23:05;12.20;;;7.47;;
62153;SDS011;48140;45.486;9.226;2023-05-28T03:25:30;14.35;;;8.55;;
62153;SDS011;48140;45.486;9.226;2023-05-28T03:27:59;13.32;;;8.50;;
62153;SDS011;48140;45.486;9.226;2023-05-28T03:30:25;14.05;;;8.00;;
62153;SDS011;48140;45.486;9.226;2023-05-28T03:32:51;13.05;;;8.52;;
62153;SDS011;48140;45.486;9.226;2023-05-28T03:35:20;14.38;;;8.90;;
62153;SDS011;48140;45.486;9.226;2023-05-28T03:37:46;11.85;;;7.88;;
62153;SDS011;48140;45.486;9.226;2023-05-28T03:40:12;13.95;;;8.20;;
62153;SDS011;48140;45.486;9.226;2023-05-28T03:42:38;18.30;;;8.55;;
62153;SDS011;48140;45.486;9.226;2023-05-28T03:45:04;13.38;;;7.93;;
62153;SDS011;48140;45.486;9.226;2023-05-28T03:47:31;14.45;;;8.05;;
62153;SDS011;48140;45.486;9.226;2023-05-28T03:49:58;10.45;;;7.60;;
62153;SDS011;48140;45.486;9.226;2023-05-28T03:52:24;15.50;;;7.70;;
62153;SDS011;48140;45.486;9.226;2023-05-28T03:54:50;13.40;;;7.80;;
62153;SDS011;48140;45.486;9.226;2023-05-28T03:57:16;11.35;;;7.38;;
62153;SDS011;48140;45.486;9.226;2023-05-28T03:59:41;12.02;;;7.38;;
62153;SDS011;48140;45.486;9.226;2023-05-28T04:02:07;10.65;;;7.03;;
62153;SDS011;48140;45.486;9.226;2023-05-28T04:04:33;12.00;;;6.93;;
62153;SDS011;48140;45.486;9.226;2023-05-28T04:06:58;11.95;;;7.18;;
62153;SDS011;48140;45.486;9.226;2023-05-28T04:09:24;13.18;;;7.20;;
62153;SDS011;48140;45.486;9.226;2023-05-28T04:11:52;10.27;;;6.75;;
62153;SDS011;48140;45.486;9.226;2023-05-28T04:14:27;10.80;;;7.00;;
62153;SDS011;48140;45.486;9.226;2023-05-28T04:17:09;15.23;;;7.70;;
62153;SDS011;48140;45.486;9.226;2023-05-28T04:19:39;11.90;;;7.30;;
62153;SDS011;48140;45.486;9.226;2023-05-28T04:22:16;11.82;;;7.95;;
62153;SDS011;48140;45.486;9.226;2023-05-28T04:25:08;10.82;;;7.53;;
62153;SDS011;48140;45.486;9.226;2023-05-28T04:30:36;11.88;;;7.15;;
62153;SDS011;48140;45.486;9.226;2023-05-28T04:33:02;11.25;;;6.88;;
62153;SDS011;48140;45.486;9.226;2023-05-28T04:35:28;11.70;;;7.13;;
62153;SDS011;48140;45.486;9.226;2023-05-28T04:37:54;11.25;;;6.53;;
62153;SDS011;48140;45.486;9.226;2023-05-28T04:40:20;12.55;;;6.93;;
62153;SDS011;48140;45.486;9.226;2023-05-28T04:42:46;12.70;;;6.95;;
62153;SDS011;48140;45.486;9.226;2023-05-28T04:45:12;12.35;;;6.85;;
62153;SDS011;48140;45.486;9.226;2023-05-28T04:47:38;10.88;;;6.93;;
62153;SDS011;48140;45.486;9.226;2023-05-28T04:50:24;11.77;;;7.10;;
62153;SDS011;48140;45.486;9.226;2023-05-28T04:59:32;12.73;;;6.65;;
62153;SDS011;48140;45.486;9.226;2023-05-28T05:26:26;10.93;;;6.53;;
62153;SDS011;48140;45.486;9.226;2023-05-28T05:32:16;12.35;;;6.68;;
62153;SDS011;48140;45.486;9.226;2023-05-28T05:35:32;10.17;;;6.30;;
62153;SDS011;48140;45.486;9.226;2023-05-28T05:45:02;9.90;;;6.43;;
62153;SDS011;48140;45.486;9.226;2023-05-28T05:58:21;9.75;;;5.93;;
62153;SDS011;48140;45.486;9.226;2023-05-28T06:18:43;10.45;;;5.53;;
62153;SDS011;48140;45.486;9.226;2023-05-28T06:53:03;6.47;;;4.60;;
62153;SDS011;48140;45.486;9.226;2023-05-28T06:55:59;7.85;;;4.95;;
62153;SDS011;48140;45.486;9.226;2023-05-28T07:02:41;9.25;;;5.25;;
62153;SDS011;48140;45.486;9.226;2023-05-28T07:18:44;10.63;;;5.28;;
62153;SDS011;48140;45.486;9.226;2023-05-28T07:21:13;6.07;;;3.83;;
62153;SDS011;48140;45.486;9.226;2023-05-28T07:23:39;7.03;;;4.50;;
62153;SDS011;48140;45.486;9.226;2023-05-28T07:26:05;8.73;;;4.57;;
62153;SDS011;48140;45.486;9.226;2023-05-28T07:28:31;7.40;;;4.50;;
62153;SDS011;48140;45.486;9.226;2023-05-28T07:30:56;6.55;;;4.82;;
62153;SDS011;48140;45.486;9.226;2023-05-28T07:33:22;8.65;;;4.88;;
62153;SDS011;48140;45.486;9.226;2023-05-28T07:35:48;9.40;;;5.38;;
62153;SDS011;48140;45.486;9.226;2023-05-28T07:38:15;9.50;;;4.50;;
62153;SDS011;48140;45.486;9.226;2023-05-28T07:40:41;8.35;;;4.65;;
62153;SDS011;48140;45.486;9.226;2023-05-28T07:43:08;7.85;;;4.80;;
62153;SDS011;48140;45.486;9.226;2023-05-28T07:45:34;11.70;;;5.18;;
62153;SDS011;48140;45.486;9.226;2023-05-28T07:48:00;10.63;;;4.95;;
62153;SDS011;48140;45.486;9.226;2023-05-28T07:50:26;10.68;;;5.30;;
62153;SDS011;48140;45.486;9.226;2023-05-28T07:52:52;8.00;;;4.82;;
62153;SDS011;48140;45.486;9.226;2023-05-28T07:55:17;8.80;;;4.95;;
62153;SDS011;48140;45.486;9.226;2023-05-28T07:57:43;7.32;;;5.35;;
62153;SDS011;48140;45.486;9.226;2023-05-28T08:00:09;14.32;;;5.30;;
62153;SDS011;48140;45.486;9.226;2023-05-28T08:02:37;8.88;;;4.95;;
62153;SDS011;48140;45.486;9.226;2023-05-28T08:05:03;8.00;;;5.30;;
62153;SDS011;48140;45.486;9.226;2023-05-28T08:07:30;9.57;;;5.03;;
62153;SDS011;48140;45.486;9.226;2023-05-28T08:09:57;11.00;;;5.55;;
62153;SDS011;48140;45.486;9.226;2023-05-28T08:12:22;8.95;;;5.35;;
62153;SDS011;48140;45.486;9.226;2023-05-28T08:14:48;10.30;;;5.63;;
62153;SDS011;48140;45.486;9.226;2023-05-28T08:17:15;9.25;;;5.50;;
62153;SDS011;48140;45.486;9.226;2023-05-28T08:19:41;10.88;;;5.60;;
62153;SDS011;48140;45.486;9.226;2023-05-28T08:22:06;11.02;;;6.00;;
62153;SDS011;48140;45.486;9.226;2023-05-28T08:24:33;12.23;;;6.30;;
62153;SDS011;48140;45.486;9.226;2023-05-28T08:26:59;10.95;;;5.65;;
62153;SDS011;48140;45.486;9.226;2023-05-28T08:29:26;10.13;;;6.03;;
62153;SDS011;48140;45.486;9.226;2023-05-28T08:31:51;10.23;;;5.72;;
62153;SDS011;48140;45.486;9.226;2023-05-28T08:34:17;13.93;;;6.20;;
62153;SDS011;48140;45.486;9.226;2023-05-28T08:36:43;10.63;;;5.75;;
62153;SDS011;48140;45.486;9.226;2023-05-28T08:39:08;9.15;;;4.90;;
62153;SDS011;48140;45.486;9.226;2023-05-28T08:41:35;10.48;;;5.13;;
62153;SDS011;48140;45.486;9.226;2023-05-28T08:44:00;10.30;;;5.63;;
62153;SDS011;48140;45.486;9.226;2023-05-28T08:46:27;10.25;;;5.35;;
62153;SDS011;48140;45.486;9.226;2023-05-28T08:48:55;12.32;;;7.60;;
62153;SDS011;48140;45.486;9.226;2023-05-28T08:51:20;9.85;;;6.22;;
62153;SDS011;48140;45.486;9.226;2023-05-28T08:53:50;10.57;;;5.68;;
62153;SDS011;48140;45.486;9.226;2023-05-28T08:56:17;11.05;;;6.15;;
62153;SDS011;48140;45.486;9.226;2023-05-28T08:58:44;10.32;;;6.53;;
62153;SDS011;48140;45.486;9.226;2023-05-28T09:01:10;15.55;;;8.10;;
62153;SDS011;48140;45.486;9.226;2023-05-28T09:03:37;12.95;;;7.20;;
62153;SDS011;48140;45.486;9.226;2023-05-28T09:06:04;10.05;;;6.70;;
62153;SDS011;48140;45.486;9.226;2023-05-28T09:08:31;11.10;;;6.10;;
62153;SDS011;48140;45.486;9.226;2023-05-28T09:10:58;11.32;;;6.65;;
62153;SDS011;48140;45.486;9.226;2023-05-28T09:13:35;10.45;;;6.65;;
62153;SDS011;48140;45.486;9.226;2023-05-28T09:16:04;10.98;;;6.20;;
62153;SDS011;48140;45.486;9.226;2023-05-28T09:18:30;13.98;;;6.75;;
62153;SDS011;48140;45.486;9.226;2023-05-28T09:20:59;14.00;;;6.55;;
62153;SDS011;48140;45.486;9.226;2023-05-28T09:23:25;10.50;;;6.90;;
62153;SDS011;48140;45.486;9.226;2023-05-28T09:25:57;12.95;;;6.32;;
62153;SDS011;48140;45.486;9.226;2023-05-28T09:28:26;11.57;;;6.15;;
62153;SDS011;48140;45.486;9.226;2023-05-28T09:31:12;11.27;;;6.50;;
62153;SDS011;48140;45.486;9.226;2023-05-28T09:33:44;10.20;;;6.63;;
62153;SDS011;48140;45.486;9.226;2023-05-28T09:36:10;15.40;;;6.60;;
62153;SDS011;48140;45.486;9.226;2023-05-28T09:38:39;12.98;;;7.00;;
62153;SDS011;48140;45.486;9.226;2023-05-28T09:41:27;10.63;;;6.03;;
62153;SDS011;48140;45.486;9.226;2023-05-28T09:43:59;13.60;;;7.38;;
62153;SDS011;48140;45.486;9.226;2023-05-28T09:46:26;12.95;;;6.13;;
62153;SDS011;48140;45.486;9.226;2023-05-28T09:48:53;14.30;;;6.60;;
62153;SDS011;48140;45.486;9.226;2023-05-28T09:51:19;12.82;;;6.53;;
62153;SDS011;48140;45.486;9.226;2023-05-28T09:53:49;14.98;;;9.35;;
62153;SDS011;48140;45.486;9.226;2023-05-28T09:56:18;13.70;;;7.50;;
62153;SDS011;48140;45.486;9.226;2023-05-28T09:58:45;10.88;;;6.85;;
62153;SDS011;48140;45.486;9.226;2023-05-28T10:01:15;12.80;;;7.20;;
62153;SDS011;48140;45.486;9.226;2023-05-28T10:03:47;10.75;;;7.43;;
62153;SDS011;48140;45.486;9.226;2023-05-28T10:06:17;11.07;;;7.10;;
62153;SDS011;48140;45.486;9.226;2023-05-28T10:08:51;13.77;;;7.93;;
62153;SDS011;48140;45.486;9.226;2023-05-28T10:11:22;10.10;;;7.18;;
62153;SDS011;48140;45.486;9.226;2023-05-28T10:13:50;10.95;;;7.40;;
62153;SDS011;48140;45.486;9.226;2023-05-28T10:16:17;11.40;;;7.05;;
62153;SDS011;48140;45.486;9.226;2023-05-28T10:18:44;13.68;;;7.53;;
62153;SDS011;48140;45.486;9.226;2023-05-28T10:21:10;13.27;;;7.38;;
62153;SDS011;48140;45.486;9.226;2023-05-28T10:23:38;11.68;;;7.57;;
62153;SDS011;48140;45.486;9.226;2023-05-28T10:26:05;9.88;;;7.18;;
62153;SDS011;48140;45.486;9.226;2023-05-28T10:28:31;17.05;;;7.60;;
62153;SDS011;48140;45.486;9.226;2023-05-28T10:31:01;10.40;;;7.10;;
62153;SDS011;48140;45.486;9.226;2023-05-28T10:33:30;8.98;;;6.68;;
62153;SDS011;48140;45.486;9.226;2023-05-28T10:35:56;13.43;;;7.10;;
62153;SDS011;48140;45.486;9.226;2023-05-28T10:38:24;16.80;;;10.70;;
62153;SDS011;48140;45.486;9.226;2023-05-28T10:40:50;16.88;;;7.40;;
62153;SDS011;48140;45.486;9.226;2023-05-28T10:46:49;9.98;;;6.70;;
62153;SDS011;48140;45.486;9.226;2023-05-28T10:59:50;11.60;;;6.72;;
62153;SDS011;48140;45.486;9.226;2023-05-28T11:02:17;12.10;;;6.70;;
62153;SDS011;48140;45.486;9.226;2023-05-28T11:04:47;11.80;;;7.72;;
62153;SDS011;48140;45.486;9.226;2023-05-28T11:07:15;14.95;;;8.57;;
62153;SDS011;48140;45.486;9.226;2023-05-28T11:09:46;14.00;;;8.23;;
62153;SDS011;48140;45.486;9.226;2023-05-28T11:12:13;11.13;;;7.55;;
62153;SDS011;48140;45.486;9.226;2023-05-28T11:14:39;48.83;;;18.42;;
62153;SDS011;48140;45.486;9.226;2023-05-28T11:17:06;19.70;;;9.25;;
62153;SDS011;48140;45.486;9.226;2023-05-28T11:19:43;15.38;;;7.00;;
62153;SDS011;48140;45.486;9.226;2023-05-28T11:22:11;11.15;;;6.55;;
62153;SDS011;48140;45.486;9.226;2023-05-28T11:27:27;12.18;;;7.13;;
62153;SDS011;48140;45.486;9.226;2023-05-28T11:29:54;12.93;;;7.05;;
62153;SDS011;48140;45.486;9.226;2023-05-28T11:32:23;13.85;;;7.60;;
62153;SDS011;48140;45.486;9.226;2023-05-28T11:34:50;13.00;;;6.18;;
62153;SDS011;48140;45.486;9.226;2023-05-28T11:37:22;12.73;;;7.22;;
62153;SDS011;48140;45.486;9.226;2023-05-28T11:39:51;12.45;;;7.18;;
62153;SDS011;48140;45.486;9.226;2023-05-28T11:42:18;11.18;;;6.25;;
62153;SDS011;48140;45.486;9.226;2023-05-28T11:44:45;10.95;;;6.35;;
62153;SDS011;48140;45.486;9.226;2023-05-28T11:47:13;10.10;;;6.38;;
62153;SDS011;48140;45.486;9.226;2023-05-28T11:49:41;11.18;;;5.85;;
62153;SDS011;48140;45.486;9.226;2023-05-28T11:52:11;7.90;;;4.60;;
62153;SDS011;48140;45.486;9.226;2023-05-28T11:54:39;8.88;;;5.03;;
62153;SDS011;48140;45.486;9.226;2023-05-28T11:57:09;12.37;;;5.57;;
62153;SDS011;48140;45.486;9.226;2023-05-28T11:59:35;11.50;;;6.47;;
62153;SDS011;48140;45.486;9.226;2023-05-28T12:02:08;10.23;;;5.97;;
62153;SDS011;48140;45.486;9.226;2023-05-28T12:04:58;9.60;;;5.63;;
62153;SDS011;48140;45.486;9.226;2023-05-28T12:07:29;9.40;;;5.68;;
62153;SDS011;48140;45.486;9.226;2023-05-28T12:10:09;10.65;;;5.30;;
62153;SDS011;48140;45.486;9.226;2023-05-28T12:12:44;11.55;;;5.90;;
62153;SDS011;48140;45.486;9.226;2023-05-28T12:18:04;8.95;;;5.13;;
62153;SDS011;48140;45.486;9.226;2023-05-28T12:29:01;11.40;;;5.43;;
62153;SDS011;48140;45.486;9.226;2023-05-28T12:31:27;7.70;;;5.10;;
62153;SDS011;48140;45.486;9.226;2023-05-28T12:46:53;9.77;;;4.32;;
62153;SDS011;48140;45.486;9.226;2023-05-28T12:49:19;7.40;;;5.00;;
62153;SDS011;48140;45.486;9.226;2023-05-28T12:51:45;10.10;;;6.38;;
62153;SDS011;48140;45.486;9.226;2023-05-28T12:54:11;8.95;;;5.65;;
62153;SDS011;48140;45.486;9.226;2023-05-28T12:56:36;13.77;;;5.47;;
62153;SDS011;48140;45.486;9.226;2023-05-28T12:59:02;8.27;;;4.68;;
62153;SDS011;48140;45.486;9.226;2023-05-28T13:01:28;8.05;;;4.60;;
62153;SDS011;48140;45.486;9.226;2023-05-28T13:06:29;8.77;;;4.32;;
62153;SDS011;48140;45.486;9.226;2023-05-28T13:08:55;11.25;;;4.63;;
62153;SDS011;48140;45.486;9.226;2023-05-28T13:11:20;6.60;;;4.15;;
62153;SDS011;48140;45.486;9.226;2023-05-28T13:13:47;6.80;;;4.22;;
62153;SDS011;48140;45.486;9.226;2023-05-28T13:16:12;7.45;;;4.15;;
62153;SDS011;48140;45.486;9.226;2023-05-28T13:18:41;6.47;;;4.32;;
62153;SDS011;48140;45.486;9.226;2023-05-28T13:21:13;6.28;;;4.03;;
62153;SDS011;48140;45.486;9.226;2023-05-28T13:28:55;6.30;;;4.35;;
62153;SDS011;48140;45.486;9.226;2023-05-28T13:34:04;12.43;;;4.72;;
62153;SDS011;48140;45.486;9.226;2023-05-28T13:36:54;6.95;;;4.00;;
62153;SDS011;48140;45.486;9.226;2023-05-28T13:41:56;8.10;;;4.40;;
62153;SDS011;48140;45.486;9.226;2023-05-28T13:44:22;7.80;;;4.47;;
62153;SDS011;48140;45.486;9.226;2023-05-28T13:46:49;7.55;;;4.95;;
62153;SDS011;48140;45.486;9.226;2023-05-28T13:49:14;9.00;;;4.03;;
62153;SDS011;48140;45.486;9.226;2023-05-28T13:51:40;6.72;;;3.88;;
62153;SDS011;48140;45.486;9.226;2023-05-28T13:54:07;8.88;;;3.78;;
62153;SDS011;48140;45.486;9.226;2023-05-28T13:56:32;6.57;;;3.65;;
62153;SDS011;48140;45.486;9.226;2023-05-28T13:58:58;7.53;;;3.92;;
62153;SDS011;48140;45.486;9.226;2023-05-28T14:01:23;10.55;;;4.57;;
62153;SDS011;48140;45.486;9.226;2023-05-28T14:03:49;4.82;;;3.60;;
62153;SDS011;48140;45.486;9.226;2023-05-28T14:06:15;9.20;;;4.07;;
62153;SDS011;48140;45.486;9.226;2023-05-28T14:08:40;5.80;;;4.10;;
62153;SDS011;48140;45.486;9.226;2023-05-28T14:11:09;8.35;;;3.70;;
62153;SDS011;48140;45.486;9.226;2023-05-28T14:13:34;7.53;;;4.72;;
62153;SDS011;48140;45.486;9.226;2023-05-28T14:16:00;6.28;;;3.95;;
62153;SDS011;48140;45.486;9.226;2023-05-28T14:18:26;6.65;;;4.15;;
62153;SDS011;48140;45.486;9.226;2023-05-28T14:20:52;7.07;;;4.20;;
62153;SDS011;48140;45.486;9.226;2023-05-28T14:23:17;6.40;;;4.28;;
62153;SDS011;48140;45.486;9.226;2023-05-28T14:25:43;8.88;;;4.50;;
62153;SDS011;48140;45.486;9.226;2023-05-28T14:47:25;8.68;;;4.85;;
62153;SDS011;48140;45.486;9.226;2023-05-28T15:03:15;7.60;;;4.22;;
62153;SDS011;48140;45.486;9.226;2023-05-28T15:05:41;5.80;;;3.83;;
62153;SDS011;48140;45.486;9.226;2023-05-28T15:08:07;6.50;;;3.92;;
62153;SDS011;48140;45.486;9.226;2023-05-28T15:10:37;9.05;;;4.43;;
62153;SDS011;48140;45.486;9.226;2023-05-28T15:13:02;5.68;;;3.75;;
62153;SDS011;48140;45.486;9.226;2023-05-28T15:15:29;11.57;;;4.22;;
62153;SDS011;48140;45.486;9.226;2023-05-28T16:04:52;9.07;;;5.00;;
62153;SDS011;48140;45.486;9.226;2023-05-28T16:07:18;8.57;;;5.03;;
62153;SDS011;48140;45.486;9.226;2023-05-28T16:09:44;8.63;;;4.55;;
62153;SDS011;48140;45.486;9.226;2023-05-28T16:12:10;8.93;;;4.57;;
62153;SDS011;48140;45.486;9.226;2023-05-28T16:14:37;9.18;;;4.53;;
62153;SDS011;48140;45.486;9.226;2023-05-28T16:17:06;11.85;;;5.43;;
62153;SDS011;48140;45.486;9.226;2023-05-28T16:19:33;8.90;;;4.97;;
62153;SDS011;48140;45.486;9.226;2023-05-28T16:21:59;6.47;;;4.60;;
62153;SDS011;48140;45.486;9.226;2023-05-28T16:24:25;6.78;;;3.95;;
62153;SDS011;48140;45.486;9.226;2023-05-28T16:26:50;8.35;;;4.75;;
62153;SDS011;48140;45.486;9.226;2023-05-28T16:29:16;9.15;;;4.75;;
62153;SDS011;48140;45.486;9.226;2023-05-28T16:31:45;7.35;;;3.92;;
62153;SDS011;48140;45.486;9.226;2023-05-28T16:34:12;8.45;;;4.50;;
62153;SDS011;48140;45.486;9.226;2023-05-28T16:36:39;7.18;;;4.43;;
62153;SDS011;48140;45.486;9.226;2023-05-28T16:39:05;8.60;;;4.80;;
62153;SDS011;48140;45.486;9.226;2023-05-28T16:41:31;6.55;;;4.50;;
62153;SDS011;48140;45.486;9.226;2023-05-28T16:43:57;8.13;;;4.88;;
62153;SDS011;48140;45.486;9.226;2023-05-28T16:46:23;8.77;;;4.57;;
62153;SDS011;48140;45.486;9.226;2023-05-28T16:48:50;6.82;;;4.35;;
62153;SDS011;48140;45.486;9.226;2023-05-28T16:51:21;9.45;;;4.72;;
62153;SDS011;48140;45.486;9.226;2023-05-28T16:53:47;10.93;;;5.03;;
62153;SDS011;48140;45.486;9.226;2023-05-28T16:56:14;9.63;;;5.60;;
62153;SDS011;48140;45.486;9.226;2023-05-28T16:58:42;10.75;;;4.72;;
62153;SDS011;48140;45.486;9.226;2023-05-28T17:01:08;6.93;;;4.40;;
62153;SDS011;48140;45.486;9.226;2023-05-28T17:03:34;8.25;;;4.47;;
62153;SDS011;48140;45.486;9.226;2023-05-28T17:06:00;7.05;;;4.57;;
62153;SDS011;48140;45.486;9.226;2023-05-28T17:08:26;7.80;;;5.05;;
62153;SDS011;48140;45.486;9.226;2023-05-28T17:10:53;8.68;;;5.05;;
62153;SDS011;48140;45.486;9.226;2023-05-28T17:13:18;9.77;;;5.07;;
62153;SDS011;48140;45.486;9.226;2023-05-28T17:15:44;9.45;;;5.45;;
62153;SDS011;48140;45.486;9.226;2023-05-28T17:18:10;10.07;;;5.82;;
62153;SDS011;48140;45.486;9.226;2023-05-28T17:20:35;9.52;;;5.75;;
62153;SDS011;48140;45.486;9.226;2023-05-28T17:23:02;10.32;;;6.13;;
62153;SDS011;48140;45.486;9.226;2023-05-28T17:25:28;13.73;;;6.82;;
62153;SDS011;48140;45.486;9.226;2023-05-28T17:27:54;12.30;;;5.80;;
62153;SDS011;48140;45.486;9.226;2023-05-28T17:30:23;10.35;;;6.00;;
62153;SDS011;48140;45.486;9.226;2023-05-28T17:32:49;11.50;;;5.53;;
62153;SDS011;48140;45.486;9.226;2023-05-28T17:35:15;9.80;;;6.00;;
62153;SDS011;48140;45.486;9.226;2023-05-28T17:37:41;8.68;;;5.93;;
62153;SDS011;48140;45.486;9.226;2023-05-28T17:40:06;11.85;;;6.15;;
62153;SDS011;48140;45.486;9.226;2023-05-28T17:42:33;11.50;;;6.72;;
62153;SDS011;48140;45.486;9.226;2023-05-28T17:44:58;13.32;;;7.35;;
62153;SDS011;48140;45.486;9.226;2023-05-28T17:47:25;11.77;;;6.47;;
62153;SDS011;48140;45.486;9.226;2023-05-28T17:49:50;11.27;;;7.45;;
62153;SDS011;48140;45.486;9.226;2023-05-28T17:52:19;13.75;;;6.78;;
62153;SDS011;48140;45.486;9.226;2023-05-28T17:54:45;11.02;;;7.47;;
62153;SDS011;48140;45.486;9.226;2023-05-28T17:57:11;11.30;;;6.45;;
62153;SDS011;48140;45.486;9.226;2023-05-28T17:59:37;8.35;;;6.28;;
62153;SDS011;48140;45.486;9.226;2023-05-28T18:02:03;9.82;;;6.38;;
62153;SDS011;48140;45.486;9.226;2023-05-28T18:04:29;11.95;;;6.13;;
62153;SDS011;48140;45.486;9.226;2023-05-28T18:06:55;10.77;;;6.75;;
62153;SDS011;48140;45.486;9.226;2023-05-28T18:09:21;12.18;;;6.57;;
62153;SDS011;48140;45.486;9.226;2023-05-28T18:11:47;10.15;;;6.18;;
62153;SDS011;48140;45.486;9.226;2023-05-28T18:14:12;19.35;;;8.25;;
62153;SDS011;48140;45.486;9.226;2023-05-28T18:16:38;17.08;;;8.95;;
62153;SDS011;48140;45.486;9.226;2023-05-28T18:19:04;11.57;;;6.82;;
62153;SDS011;48140;45.486;9.226;2023-05-28T18:21:29;13.77;;;7.80;;
62153;SDS011;48140;45.486;9.226;2023-05-28T18:24:05;12.95;;;6.75;;
62153;SDS011;48140;45.486;9.226;2023-05-28T18:26:34;11.95;;;7.70;;
62153;SDS011;48140;45.486;9.226;2023-05-28T18:29:01;14.98;;;8.55;;
62153;SDS011;48140;45.486;9.226;2023-05-28T18:31:26;12.18;;;6.60;;
62153;SDS011;48140;45.486;9.226;2023-05-28T18:33:52;12.73;;;6.97;;
62153;SDS011;48140;45.486;9.226;2023-05-28T18:36:18;11.82;;;6.80;;
62153;SDS011;48140;45.486;9.226;2023-05-28T18:38:44;12.80;;;6.82;;
62153;SDS011;48140;45.486;9.226;2023-05-28T18:41:09;13.10;;;7.80;;
62153;SDS011;48140;45.486;9.226;2023-05-28T18:43:35;12.57;;;6.50;;
62153;SDS011;48140;45.486;9.226;2023-05-28T18:46:00;12.48;;;6.85;;
62153;SDS011;48140;45.486;9.226;2023-05-28T18:48:26;10.77;;;6.80;;
62153;SDS011;48140;45.486;9.226;2023-05-28T18:50:53;11.27;;;6.93;;
62153;SDS011;48140;45.486;9.226;2023-05-28T18:53:19;14.88;;;7.57;;
62153;SDS011;48140;45.486;9.226;2023-05-28T18:55:44;12.88;;;7.03;;
62153;SDS011;48140;45.486;9.226;2023-05-28T18:58:10;10.13;;;6.53;;
62153;SDS011;48140;45.486;9.226;2023-05-28T19:00:36;14.68;;;6.75;;
62153;SDS011;48140;45.486;9.226;2023-05-28T19:03:01;11.95;;;7.25;;